Gasquet, California
Current Conditions -  °F | °C
As of 10:56 AM on Friday 31 Oct 2014 (Local Time) from KCEC Reporting Station
Clear Clear  
Wind Chill: 14°   Ceiling: Unl
Heat Index: 14°   Visibility: 10mi
Dew Point: 11°   Wind: 8mph
Humidity: 83%   Direction: 180°S
Pressure: 29.88"   Gusts: NA
Location:  41.85°N, 123.97°W
Report Text: KCEC 311756Z AUTO 18007KT 10SM CLR 14/11 A2988 RMK AO2 SLP119 60008 T01390111 10139 20100
Loading
Personal Weather Stations






























Interactive Weather Map
Tropical Storm Tracking
New forecast layout! Learn more

10-Day Weather Forecast

Advertisements
Track Severe Weather on mobile